Time;durP1;ratioP1;P1;durP2;ratioP2;P2;SDS_P1;SDS_P2;PMS_P1;PMS_P2;Temp;Humidity;BMP_temperature;BMP_pressure;BME280_temperature;BME280_humidity;BME280_pressure;Samples;Min_cycle;Max_cycle;Signal;HPM_P1;HPM_P2
2022/03/11 00:01:00;;;;;;;;;;;;;;;;;;2208273;59;1236;-72
2022/03/11 00:03:34;;;;;;;;;;;;;;;;;;2208862;67;1247;-72
2022/03/11 00:06:07;;;;;;;;;;;;;;;;;;2207870;59;1777;-72
2022/03/11 00:08:40;;;;;;;;;;;;;;;;;;2204028;67;2116;-72
2022/03/11 00:11:13;;;;;;;;;;;;;;;;;;2207703;60;1272;-72
2022/03/11 00:13:46;;;;;;;;;;;;;;;;;;2207910;67;1928;-72
2022/03/11 00:16:22;;;;;;;;;;;;;;;;;;2208674;59;1247;-72
2022/03/11 00:18:55;;;;;;;;;;;;;;;;;;2208021;67;1113;-72
2022/03/11 00:21:28;;;;;;;;;;;;;;;;;;2208648;67;1156;-72
2022/03/11 00:24:02;;;;;;;;;;;;;;;;;;2208156;59;2103;-72
2022/03/11 00:26:35;;;;;;;;;;;;;;;;;;2207740;59;1942;-72
2022/03/11 00:29:08;;;;;;;;;;;;;;;;;;2208039;67;1151;-72
2022/03/11 00:31:45;;;;;;;;;;;;;;;;;;2207933;59;1093;-72
2022/03/11 00:34:18;;;;;;;;;;;;;;;;;;2208342;67;1983;-72
2022/03/11 00:36:51;;;;;;;;;;;;;;;;;;2208199;67;1241;-72
2022/03/11 00:39:24;;;;;;;;;;;;;;;;;;2208616;67;1213;-72
2022/03/11 00:41:58;;;;;;;;;;;;;;;;;;2208824;59;1272;-72
2022/03/11 00:44:31;;;;;;;;;;;;;;;;;;2208708;67;1114;-72
2022/03/11 00:47:07;;;;;;;;;;;;;;;;;;2208364;59;1940;-72
2022/03/11 00:49:40;;;;;;;;;;;;;;;;;;2208623;67;1095;-72
2022/03/11 00:52:13;;;;;;;;;;;;;;;;;;2208348;59;1260;-72
2022/03/11 00:54:47;;;;;;;;;;;;;;;;;;2208312;59;1932;-72
2022/03/11 00:57:20;;;;;;;;;;;;;;;;;;2208332;67;1161;-72
2022/03/11 00:59:53;;;;;;;;;;;;;;;;;;2209286;59;1247;-72
2022/03/11 01:02:29;;;;;;;;;;;;;;;;;;2208801;67;1165;-72
2022/03/11 01:05:02;;;;;;;;;;;;;;;;;;2207953;59;1723;-72
2022/03/11 01:07:36;;;;;;;;;;;;;;;;;;2208052;59;1083;-72
2022/03/11 01:10:10;;;;;;;;;;;;;;;;;;2209048;67;1188;-72
2022/03/11 01:12:43;;;;;;;;;;;;;;;;;;2208999;67;1245;-72
2022/03/11 01:15:16;;;;;;;;;;;;;;;;;;2208520;67;1983;-72
2022/03/11 01:17:52;;;;;;;;;;;;;;;;;;2208514;67;1109;-73
2022/03/11 01:20:25;;;;;;;;;;;;;;;;;;2208745;59;1177;-72
2022/03/11 01:22:58;;;;;;;;;;;;;;;;;;2208178;67;1123;-72
2022/03/11 01:25:32;;;;;;;;;;;;;;;;;;2204726;59;2248;-70
2022/03/11 01:28:05;;;;;;;;;;;;;;;;;;2208224;67;1273;-70
2022/03/11 01:30:38;;;;;;;;;;;;;;;;;;2208377;67;1240;-70
2022/03/11 01:33:14;;;;;;;;;;;;;;;;;;2208235;59;1117;-70
2022/03/11 01:35:48;;;;;;;;;;;;;;;;;;2208346;59;2039;-70
2022/03/11 01:38:21;;;;;;;;;;;;;;;;;;2207951;59;1188;-70
2022/03/11 01:40:54;;;;;;;;;;;;;;;;;;2208401;67;1178;-70
2022/03/11 01:43:28;;;;;;;;;;;;;;;;;;2207877;67;1244;-70
2022/03/11 01:46:01;;;;;;;;;;;;;;;;;;2207397;59;1884;-70
2022/03/11 01:48:37;;;;;;;;;;;;;;;;;;2208194;67;1139;-70
2022/03/11 01:51:10;;;;;;;;;;;;;;;;;;2208473;67;1252;-70
2022/03/11 01:53:43;;;;;;;;;;;;;;;;;;2208186;59;2150;-70
2022/03/11 01:56:17;;;;;;;;;;;;;;;;;;2207915;67;1921;-70
2022/03/11 01:58:51;;;;;;;;;;;;;;;;;;2208223;67;1184;-70
2022/03/11 02:01:24;;;;;;;;;;;;;;;;;;2208007;67;1311;-70
2022/03/11 02:04:00;;;;;;;;;;;;;;;;;;2208273;67;1111;-70
2022/03/11 02:06:34;;;;;;;;;;;;;;;;;;2207522;59;1706;-70
2022/03/11 02:09:07;;;;;;;;;;;;;;;;;;2208438;67;1200;-71
2022/03/11 02:11:40;;;;;;;;;;;;;;;;;;2208412;67;1195;-70
2022/03/11 02:14:14;;;;;;;;;;;;;;;;;;2208292;67;1936;-70
2022/03/11 02:16:47;;;;;;;;;;;;;;;;;;2208786;67;1190;-70
2022/03/11 02:19:24;;;;;;;;;;;;;;;;;;2208406;67;1235;-70
2022/03/11 02:21:58;;;;;;;;;;;;;;;;;;2208947;67;1219;-70
2022/03/11 02:24:34;;;;;;;;;;;;;;;;;;2207974;59;2085;-70
2022/03/11 02:27:07;;;;;;;;;;;;;;;;;;2209866;59;1980;-70
2022/03/11 02:29:40;;;;;;;;;;;;;;;;;;2208337;67;1197;-70
2022/03/11 02:32:14;;;;;;;;;;;;;;;;;;2209245;67;1069;-70
2022/03/11 02:34:47;;;;;;;;;;;;;;;;;;2204669;67;1929;-70
2022/03/11 02:37:20;;;;;;;;;;;;;;;;;;2209647;67;1243;-70
2022/03/11 02:39:56;;;;;;;;;;;;;;;;;;2209177;67;1239;-70
2022/03/11 02:42:29;;;;;;;;;;;;;;;;;;2208571;67;1195;-70
2022/03/11 02:45:02;;;;;;;;;;;;;;;;;;2208426;59;1684;-70
2022/03/11 02:47:36;;;;;;;;;;;;;;;;;;2208707;67;1291;-70
2022/03/11 02:50:09;;;;;;;;;;;;;;;;;;2208338;59;2145;-70
2022/03/11 02:52:42;;;;;;;;;;;;;;;;;;2207379;59;1316;-70
2022/03/11 02:55:18;;;;;;;;;;;;;;;;;;2208480;59;1955;-70
2022/03/11 02:57:51;;;;;;;;;;;;;;;;;;2209074;59;1134;-71
2022/03/11 03:00:24;;;;;;;;;;;;;;;;;;2208360;67;1251;-70
2022/03/11 03:02:58;;;;;;;;;;;;;;;;;;2209449;67;1131;-70
2022/03/11 03:05:31;;;;;;;;;;;;;;;;;;2207479;59;1556;-70
2022/03/11 03:08:04;;;;;;;;;;;;;;;;;;2204424;59;1314;-70
2022/03/11 03:10:40;;;;;;;;;;;;;;;;;;2209058;59;2031;-70
2022/03/11 03:13:14;;;;;;;;;;;;;;;;;;2208964;67;1234;-70
2022/03/11 03:15:47;;;;;;;;;;;;;;;;;;2208951;67;1933;-70
2022/03/11 03:18:21;;;;;;;;;;;;;;;;;;2208751;67;1305;-72
2022/03/11 03:20:54;;;;;;;;;;;;;;;;;;2208361;67;1105;-73
2022/03/11 03:23:27;;;;;;;;;;;;;;;;;;2207947;59;2033;-73
2022/03/11 03:26:03;;;;;;;;;;;;;;;;;;2208029;59;1614;-73
2022/03/11 03:28:36;;;;;;;;;;;;;;;;;;2208570;59;1074;-73
2022/03/11 03:31:09;;;;;;;;;;;;;;;;;;2209174;67;1342;-73
2022/03/11 03:33:42;;;;;;;;;;;;;;;;;;2205274;67;1472;-73
2022/03/11 03:36:15;;;;;;;;;;;;;;;;;;2208788;67;1996;-72
2022/03/11 03:38:48;;;;;;;;;;;;;;;;;;2209171;59;1121;-72
2022/03/11 03:41:24;;;;;;;;;;;;;;;;;;2208650;59;1168;-73
2022/03/11 03:43:57;;;;;;;;;;;;;;;;;;2208104;59;1269;-72
2022/03/11 03:46:30;;;;;;;;;;;;;;;;;;2204204;59;1696;-72
2022/03/11 03:49:04;;;;;;;;;;;;;;;;;;2208591;67;1241;-72
2022/03/11 03:51:38;;;;;;;;;;;;;;;;;;2207142;67;1195;-72
2022/03/11 03:54:11;;;;;;;;;;;;;;;;;;2208767;59;1985;-73
2022/03/11 03:56:48;;;;;;;;;;;;;;;;;;2207757;67;1989;-72
2022/03/11 03:59:24;;;;;;;;;;;;;;;;;;2208279;59;1254;-73
2022/03/11 04:01:57;;;;;;;;;;;;;;;;;;2208496;67;1134;-73
2022/03/11 04:04:30;;;;;;;;;;;;;;;;;;2208230;67;1215;-72
2022/03/11 04:07:03;;;;;;;;;;;;;;;;;;2204600;59;1649;-73
2022/03/11 04:09:36;;;;;;;;;;;;;;;;;;2208505;67;1311;-74
2022/03/11 04:12:13;;;;;;;;;;;;;;;;;;2208892;67;1119;-73
2022/03/11 04:14:46;;;;;;;;;;;;;;;;;;2208484;67;1156;-73
2022/03/11 04:17:19;;;;;;;;;;;;;;;;;;2209083;59;1935;-72
2022/03/11 04:19:52;;;;;;;;;;;;;;;;;;2209070;67;1188;-72
2022/03/11 04:22:25;;;;;;;;;;;;;;;;;;2208747;59;1113;-73
2022/03/11 04:24:59;;;;;;;;;;;;;;;;;;2208393;59;1990;-72
2022/03/11 04:27:34;;;;;;;;;;;;;;;;;;2208569;67;1128;-73
2022/03/11 04:30:08;;;;;;;;;;;;;;;;;;2209365;59;1215;-72
2022/03/11 04:32:41;;;;;;;;;;;;;;;;;;2205048;67;1233;-72
2022/03/11 04:35:14;;;;;;;;;;;;;;;;;;2205287;67;1986;-72
2022/03/11 04:37:47;;;;;;;;;;;;;;;;;;2208826;67;1233;-72
2022/03/11 04:40:21;;;;;;;;;;;;;;;;;;2208891;59;1288;-72
2022/03/11 04:42:56;;;;;;;;;;;;;;;;;;2208345;59;1127;-72
2022/03/11 04:45:30;;;;;;;;;;;;;;;;;;2208139;59;1843;-72
2022/03/11 04:48:03;;;;;;;;;;;;;;;;;;2208822;67;1202;-72
2022/03/11 04:50:37;;;;;;;;;;;;;;;;;;2208186;67;1414;-72
2022/03/11 04:53:10;;;;;;;;;;;;;;;;;;2208538;59;1153;-72
2022/03/11 04:55:43;;;;;;;;;;;;;;;;;;2208347;59;2445;-72
2022/03/11 04:58:19;;;;;;;;;;;;;;;;;;2208916;59;2379;-72
2022/03/11 05:00:52;;;;;;;;;;;;;;;;;;2207941;59;1128;-72
2022/03/11 05:03:25;;;;;;;;;;;;;;;;;;2208199;59;1233;-72
2022/03/11 05:05:58;;;;;;;;;;;;;;;;;;2209515;53;3595;-69
2022/03/11 05:08:31;;;;;;;;;;;;;;;;;;2210013;59;1091;-68
2022/03/11 05:11:04;;;;;;;;;;;;;;;;;;2211129;59;1152;-69
2022/03/11 05:13:40;;;;;;;;;;;;;;;;;;2211071;59;1809;-69
2022/03/11 05:16:13;;;;;;;;;;;;;;;;;;2209398;67;2000;-69
2022/03/11 05:18:47;;;;;;;;;;;;;;;;;;2207676;59;1920;-69
2022/03/11 05:21:20;;;;;;;;;;;;;;;;;;2208111;67;1105;-69
2022/03/11 05:23:53;;;;;;;;;;;;;;;;;;2208380;59;2073;-69
2022/03/11 05:26:29;;;;;;;;;;;;;;;;;;2204641;59;1723;-69
2022/03/11 05:29:05;;;;;;;;;;;;;;;;;;2206826;67;1190;-69
2022/03/11 05:31:38;;;;;;;;;;;;;;;;;;2208258;60;1109;-69
2022/03/11 05:34:12;;;;;;;;;;;;;;;;;;2208754;67;1219;-69
2022/03/11 05:36:45;;;;;;;;;;;;;;;;;;2207859;67;2007;-68
2022/03/11 05:39:18;;;;;;;;;;;;;;;;;;2208327;59;1611;-69
2022/03/11 05:41:51;;;;;;;;;;;;;;;;;;2207920;67;1239;-69
2022/03/11 05:44:27;;;;;;;;;;;;;;;;;;2208035;67;1207;-69
2022/03/11 05:47:00;;;;;;;;;;;;;;;;;;2206492;59;1928;-69
2022/03/11 05:49:34;;;;;;;;;;;;;;;;;;2208040;59;1093;-69
2022/03/11 05:52:07;;;;;;;;;;;;;;;;;;2208159;59;1181;-69
2022/03/11 05:54:40;;;;;;;;;;;;;;;;;;2207936;59;2204;-69
2022/03/11 05:57:13;;;;;;;;;;;;;;;;;;2207775;59;1937;-69
2022/03/11 05:59:49;;;;;;;;;;;;;;;;;;2207913;67;1173;-69
2022/03/11 06:02:22;;;;;;;;;;;;;;;;;;2207595;67;1201;-69
2022/03/11 06:04:56;;;;;;;;;;;;;;;;;;2208505;67;1307;-69
2022/03/11 06:07:29;;;;;;;;;;;;;;;;;;2207303;59;1209;-69
2022/03/11 06:10:02;;;;;;;;;;;;;;;;;;2207701;67;1256;-69
2022/03/11 06:12:35;;;;;;;;;;;;;;;;;;2207670;67;1217;-69
2022/03/11 06:15:12;;;;;;;;;;;;;;;;;;2204882;59;2145;-69
2022/03/11 06:17:45;;;;;;;;;;;;;;;;;;2207625;59;1932;-69
2022/03/11 06:20:19;;;;;;;;;;;;;;;;;;2207986;59;1095;-69
2022/03/11 06:22:53;;;;;;;;;;;;;;;;;;2208020;67;1254;-69
2022/03/11 06:25:26;;;;;;;;;;;;;;;;;;2207703;59;2037;-69
2022/03/11 06:28:00;;;;;;;;;;;;;;;;;;2207847;67;1208;-69
2022/03/11 06:30:35;;;;;;;;;;;;;;;;;;2208203;67;1193;-69
2022/03/11 06:33:09;;;;;;;;;;;;;;;;;;2207942;59;1262;-69
2022/03/11 06:35:42;;;;;;;;;;;;;;;;;;2206624;59;1828;-69
2022/03/11 06:38:16;;;;;;;;;;;;;;;;;;2207694;67;1938;-69
2022/03/11 06:40:49;;;;;;;;;;;;;;;;;;2207955;67;1243;-69
2022/03/11 06:43:22;;;;;;;;;;;;;;;;;;2207858;67;1094;-69
2022/03/11 06:45:58;;;;;;;;;;;;;;;;;;2206733;59;1872;-69
2022/03/11 06:48:31;;;;;;;;;;;;;;;;;;2207894;67;1139;-69
2022/03/11 06:51:05;;;;;;;;;;;;;;;;;;2207770;59;1077;-69
2022/03/11 06:53:38;;;;;;;;;;;;;;;;;;2208341;59;1919;-70
2022/03/11 06:56:11;;;;;;;;;;;;;;;;;;2207908;59;1979;-69
2022/03/11 06:58:44;;;;;;;;;;;;;;;;;;2207699;67;1300;-69
2022/03/11 07:01:20;;;;;;;;;;;;;;;;;;2208005;67;1093;-69
2022/03/11 07:03:53;;;;;;;;;;;;;;;;;;2207630;59;1788;-69
2022/03/11 07:06:26;;;;;;;;;;;;;;;;;;2207322;59;1812;-70
2022/03/11 07:08:59;;;;;;;;;;;;;;;;;;2207641;67;1098;-69
2022/03/11 07:11:33;;;;;;;;;;;;;;;;;;2208596;67;1172;-69
2022/03/11 07:14:06;;;;;;;;;;;;;;;;;;2207164;59;1613;-69
2022/03/11 07:16:42;;;;;;;;;;;;;;;;;;2207800;67;1971;-69
2022/03/11 07:19:15;;;;;;;;;;;;;;;;;;2207396;59;1461;-69
2022/03/11 07:21:49;;;;;;;;;;;;;;;;;;2207409;59;1280;-69
2022/03/11 07:24:22;;;;;;;;;;;;;;;;;;2207896;59;1886;-69
2022/03/11 07:26:55;;;;;;;;;;;;;;;;;;2207179;59;1730;-70
2022/03/11 07:29:28;;;;;;;;;;;;;;;;;;2207598;67;1125;-70
2022/03/11 07:32:04;;;;;;;;;;;;;;;;;;2207374;59;1677;-70
2022/03/11 07:34:37;;;;;;;;;;;;;;;;;;2207935;59;1381;-69
2022/03/11 07:37:12;;;;;;;;;;;;;;;;;;2207957;59;1927;-70
2022/03/11 07:39:45;;;;;;;;;;;;;;;;;;2205109;67;1296;-70
2022/03/11 07:42:18;;;;;;;;;;;;;;;;;;2208066;67;1107;-69
2022/03/11 07:44:51;;;;;;;;;;;;;;;;;;2207386;59;1203;-70
2022/03/11 07:47:27;;;;;;;;;;;;;;;;;;2207669;59;1969;-69
2022/03/11 07:50:00;;;;;;;;;;;;;;;;;;2206774;59;1213;-70
2022/03/11 07:52:34;;;;;;;;;;;;;;;;;;2206963;67;1397;-70
2022/03/11 07:55:08;;;;;;;;;;;;;;;;;;2207636;59;2085;-70
2022/03/11 07:57:42;;;;;;;;;;;;;;;;;;2207792;59;1919;-70
2022/03/11 08:00:15;;;;;;;;;;;;;;;;;;2207633;67;1176;-69
2022/03/11 08:02:51;;;;;;;;;;;;;;;;;;2207465;67;1147;-69
2022/03/11 08:05:24;;;;;;;;;;;;;;;;;;2207880;59;1767;-69
2022/03/11 08:07:57;;;;;;;;;;;;;;;;;;2207458;67;1110;-69
2022/03/11 08:10:33;;;;;;;;;;;;;;;;;;2210691;67;1166;-69
2022/03/11 08:13:06;;;;;;;;;;;;;;;;;;2208146;67;1160;-69
2022/03/11 08:15:40;;;;;;;;;;;;;;;;;;2205359;67;1248;-69
2022/03/11 08:18:15;;;;;;;;;;;;;;;;;;2207527;67;1990;-69
2022/03/11 08:20:49;;;;;;;;;;;;;;;;;;2207374;59;1279;-69
2022/03/11 08:23:22;;;;;;;;;;;;;;;;;;2207544;67;2023;-69
2022/03/11 08:25:55;;;;;;;;;;;;;;;;;;2207238;59;1711;-69
2022/03/11 08:28:28;;;;;;;;;;;;;;;;;;2207766;67;1175;-69
2022/03/11 08:31:01;;;;;;;;;;;;;;;;;;2206307;59;1267;-69
2022/03/11 08:33:39;;;;;;;;;;;;;;;;;;2207205;67;1236;-69
2022/03/11 08:36:13;;;;;;;;;;;;;;;;;;2207304;67;1223;-69
2022/03/11 08:38:46;;;;;;;;;;;;;;;;;;2207039;59;1979;-69
2022/03/11 08:41:19;;;;;;;;;;;;;;;;;;2207277;59;1061;-69
2022/03/11 08:43:52;;;;;;;;;;;;;;;;;;2207800;67;1242;-69
2022/03/11 08:46:26;;;;;;;;;;;;;;;;;;2207160;59;1852;-69
2022/03/11 08:49:02;;;;;;;;;;;;;;;;;;2207291;67;1126;-69
2022/03/11 08:51:35;;;;;;;;;;;;;;;;;;2206981;67;1307;-69
2022/03/11 08:54:08;;;;;;;;;;;;;;;;;;2207452;59;1971;-69
2022/03/11 08:56:41;;;;;;;;;;;;;;;;;;2207445;67;1942;-69
2022/03/11 08:59:14;;;;;;;;;;;;;;;;;;2207314;67;1094;-69
2022/03/11 09:01:48;;;;;;;;;;;;;;;;;;2207346;59;1288;-69
2022/03/11 09:04:23;;;;;;;;;;;;;;;;;;2207664;59;1110;-69
2022/03/11 09:06:57;;;;;;;;;;;;;;;;;;2206690;59;1862;-69
2022/03/11 09:09:32;;;;;;;;;;;;;;;;;;2207802;59;1118;-69
2022/03/11 09:12:05;;;;;;;;;;;;;;;;;;2207640;59;1201;-69
2022/03/11 09:14:39;;;;;;;;;;;;;;;;;;2208293;59;1296;-69
2022/03/11 09:17:12;;;;;;;;;;;;;;;;;;2207932;59;1943;-69
2022/03/11 09:19:49;;;;;;;;;;;;;;;;;;2208461;59;1252;-69
2022/03/11 09:22:22;;;;;;;;;;;;;;;;;;2207482;59;1057;-70
2022/03/11 09:24:55;;;;;;;;;;;;;;;;;;2205185;59;1998;-69
2022/03/11 09:27:29;;;;;;;;;;;;;;;;;;2207787;59;2065;-69
2022/03/11 09:30:03;;;;;;;;;;;;;;;;;;2208162;67;1230;-70
2022/03/11 09:32:37;;;;;;;;;;;;;;;;;;2208475;67;1239;-69
2022/03/11 09:35:15;;;;;;;;;;;;;;;;;;2208074;59;1318;-69
2022/03/11 09:37:48;;;;;;;;;;;;;;;;;;2208376;67;1933;-69
2022/03/11 09:40:21;;;;;;;;;;;;;;;;;;2207918;67;1260;-70
2022/03/11 09:42:56;;;;;;;;;;;;;;;;;;2208591;67;1140;-70
2022/03/11 09:45:29;;;;;;;;;;;;;;;;;;2207723;59;1750;-69
2022/03/11 09:48:03;;;;;;;;;;;;;;;;;;2207948;67;1203;-69
2022/03/11 09:50:40;;;;;;;;;;;;;;;;;;2207576;67;1283;-69
2022/03/11 09:53:13;;;;;;;;;;;;;;;;;;2208053;67;1060;-69
2022/03/11 09:55:47;;;;;;;;;;;;;;;;;;2207512;59;2382;-69
2022/03/11 09:58:20;;;;;;;;;;;;;;;;;;2203494;67;1977;-69
2022/03/11 10:00:53;;;;;;;;;;;;;;;;;;2207682;67;1316;-69
2022/03/11 10:03:29;;;;;;;;;;;;;;;;;;2207740;59;1113;-69
2022/03/11 10:06:05;;;;;;;;;;;;;;;;;;2207535;59;1805;-69
2022/03/11 10:08:39;;;;;;;;;;;;;;;;;;2207541;59;1240;-69
2022/03/11 10:11:19;;;;;;;;;;;;;;;;;;2207793;59;1248;-71
2022/03/11 10:13:53;;;;;;;;;;;;;;;;;;2207536;67;1259;-69
2022/03/11 10:16:28;;;;;;;;;;;;;;;;;;2207795;67;1143;-69
2022/03/11 10:19:02;;;;;;;;;;;;;;;;;;2207428;59;1987;-69
2022/03/11 10:21:39;;;;;;;;;;;;;;;;;;2207410;59;1105;-69
2022/03/11 10:24:13;;;;;;;;;;;;;;;;;;2208027;59;1987;-69
2022/03/11 10:26:47;;;;;;;;;;;;;;;;;;2206631;59;1817;-69
2022/03/11 10:29:21;;;;;;;;;;;;;;;;;;2207903;59;1073;-69
2022/03/11 10:31:57;;;;;;;;;;;;;;;;;;2204051;67;1527;-69
2022/03/11 10:34:30;;;;;;;;;;;;;;;;;;2208036;59;1108;-69
2022/03/11 10:37:07;;;;;;;;;;;;;;;;;;2207598;67;1318;-69
2022/03/11 10:39:41;;;;;;;;;;;;;;;;;;2206458;59;1938;-69
2022/03/11 10:42:19;;;;;;;;;;;;;;;;;;2204838;67;1430;-70
2022/03/11 10:44:59;;;;;;;;;;;;;;;;;;2207803;59;1254;-69
2022/03/11 10:47:34;;;;;;;;;;;;;;;;;;2207911;59;1468;-70
2022/03/11 10:50:08;;;;;;;;;;;;;;;;;;2207169;59;1131;-69
2022/03/11 10:52:46;;;;;;;;;;;;;;;;;;2204516;59;1998;-69
2022/03/11 10:55:21;;;;;;;;;;;;;;;;;;2207258;59;2101;-70
2022/03/11 10:57:54;;;;;;;;;;;;;;;;;;2207308;67;1996;-70
2022/03/11 11:00:29;;;;;;;;;;;;;;;;;;2207657;67;1175;-70
2022/03/11 11:03:03;;;;;;;;;;;;;;;;;;2205142;67;1267;-70
2022/03/11 11:05:37;;;;;;;;;;;;;;;;;;2206224;53;3542;-73
2022/03/11 11:08:12;;;;;;;;;;;;;;;;;;2209913;59;1523;-74
2022/03/11 11:10:47;;;;;;;;;;;;;;;;;;2211656;59;1207;-74
2022/03/11 11:13:21;;;;;;;;;;;;;;;;;;2213204;59;1931;-74
2022/03/11 11:15:54;;;;;;;;;;;;;;;;;;2213221;59;1260;-74
2022/03/11 11:18:28;;;;;;;;;;;;;;;;;;2211427;59;1935;-74
2022/03/11 11:21:02;;;;;;;;;;;;;;;;;;2211307;67;1137;-74
2022/03/11 11:23:39;;;;;;;;;;;;;;;;;;2210464;59;2274;-74
2022/03/11 11:26:12;;;;;;;;;;;;;;;;;;2210446;59;1843;-74
2022/03/11 11:28:46;;;;;;;;;;;;;;;;;;2211041;67;1196;-74
2022/03/11 11:31:20;;;;;;;;;;;;;;;;;;2211162;67;1236;-74
2022/03/11 11:33:53;;;;;;;;;;;;;;;;;;2211275;59;2058;-73
2022/03/11 11:36:36;;;;;;;;;;;;;;;;;;2211044;59;1308;-73
2022/03/11 11:39:14;;;;;;;;;;;;;;;;;;2211304;59;1973;-73
2022/03/11 11:41:53;;;;;;;;;;;;;;;;;;2211206;59;1241;-74
2022/03/11 11:44:35;;;;;;;;;;;;;;;;;;2211481;67;1234;-73
2022/03/11 11:47:09;;;;;;;;;;;;;;;;;;2210477;59;1891;-74
2022/03/11 11:49:43;;;;;;;;;;;;;;;;;;2211272;67;1105;-74
2022/03/11 11:52:33;;;;;;;;;;;;;;;;;;2210840;67;1260;-74
2022/03/11 11:55:19;;;;;;;;;;;;;;;;;;2209889;59;2031;-73
2022/03/11 11:57:53;;;;;;;;;;;;;;;;;;2210912;59;1928;-74
2022/03/11 12:00:34;;;;;;;;;;;;;;;;;;2207059;59;1485;-73
2022/03/11 12:03:09;;;;;;;;;;;;;;;;;;2211200;67;1292;-74
2022/03/11 12:05:47;;;;;;;;;;;;;;;;;;2206921;59;1823;-74
2022/03/11 12:08:39;;;;;;;;;;;;;;;;;;2211188;67;1235;-74
2022/03/11 12:11:36;;;;;;;;;;;;;;;;;;2210717;59;1595;-74
2022/03/11 12:14:09;;;;;;;;;;;;;;;;;;2210870;59;1599;-73
2022/03/11 12:17:00;;;;;;;;;;;;;;;;;;2211431;59;1247;-74
2022/03/11 12:19:49;;;;;;;;;;;;;;;;;;2211041;59;1987;-74
2022/03/11 12:22:24;;;;;;;;;;;;;;;;;;2210444;67;1240;-73
2022/03/11 12:25:01;;;;;;;;;;;;;;;;;;2211231;59;2464;-74
2022/03/11 12:27:52;;;;;;;;;;;;;;;;;;2210842;59;2070;-74
2022/03/11 12:30:28;;;;;;;;;;;;;;;;;;2207907;67;1272;-74
2022/03/11 12:33:03;;;;;;;;;;;;;;;;;;2211009;67;1065;-74
2022/03/11 12:35:36;;;;;;;;;;;;;;;;;;2210925;59;2065;-74
2022/03/11 12:38:13;;;;;;;;;;;;;;;;;;2211729;59;1932;-73
2022/03/11 12:40:47;;;;;;;;;;;;;;;;;;2212470;59;1227;-74
2022/03/11 12:43:21;;;;;;;;;;;;;;;;;;2212301;67;1177;-74
2022/03/11 12:45:58;;;;;;;;;;;;;;;;;;2211995;59;1597;-74
2022/03/11 12:48:33;;;;;;;;;;;;;;;;;;2211320;59;1553;-74
2022/03/11 12:51:07;;;;;;;;;;;;;;;;;;2211558;67;1248;-74
2022/03/11 12:53:41;;;;;;;;;;;;;;;;;;2211770;59;2315;-73
2022/03/11 12:56:14;;;;;;;;;;;;;;;;;;2211872;59;1612;-74
2022/03/11 12:58:49;;;;;;;;;;;;;;;;;;2211732;59;1995;-73
2022/03/11 13:01:25;;;;;;;;;;;;;;;;;;2211892;67;1255;-74
2022/03/11 13:03:58;;;;;;;;;;;;;;;;;;2211874;59;1260;-73
2022/03/11 13:06:33;;;;;;;;;;;;;;;;;;2210634;59;1768;-73
2022/03/11 13:09:07;;;;;;;;;;;;;;;;;;2211101;67;1190;-74
2022/03/11 13:11:40;;;;;;;;;;;;;;;;;;2211411;59;1787;-74
2022/03/11 13:14:13;;;;;;;;;;;;;;;;;;2211653;67;1307;-74
2022/03/11 13:16:52;;;;;;;;;;;;;;;;;;2211155;59;1752;-74
2022/03/11 13:19:25;;;;;;;;;;;;;;;;;;2211008;59;1981;-74
2022/03/11 13:21:59;;;;;;;;;;;;;;;;;;2211029;59;1256;-74
2022/03/11 13:24:32;;;;;;;;;;;;;;;;;;2211778;67;2330;-73
2022/03/11 13:27:09;;;;;;;;;;;;;;;;;;2211512;59;1598;-74
2022/03/11 13:29:45;;;;;;;;;;;;;;;;;;2211629;59;1629;-74
2022/03/11 13:32:21;;;;;;;;;;;;;;;;;;2211788;67;1176;-73
2022/03/11 13:34:54;;;;;;;;;;;;;;;;;;2211714;67;1283;-74
2022/03/11 13:37:28;;;;;;;;;;;;;;;;;;2211583;59;1268;-74
2022/03/11 13:40:10;;;;;;;;;;;;;;;;;;2211338;60;1928;-73
2022/03/11 13:42:44;;;;;;;;;;;;;;;;;;2211523;67;1114;-74
2022/03/11 13:45:17;;;;;;;;;;;;;;;;;;2211467;59;1820;-74
2022/03/11 13:48:05;;;;;;;;;;;;;;;;;;2211222;59;1608;-74
2022/03/11 13:50:41;;;;;;;;;;;;;;;;;;2211494;59;1123;-74
2022/03/11 13:53:15;;;;;;;;;;;;;;;;;;2210686;59;1640;-74
2022/03/11 13:55:48;;;;;;;;;;;;;;;;;;2211992;59;2047;-73
2022/03/11 13:58:22;;;;;;;;;;;;;;;;;;2211577;67;1058;-73
2022/03/11 14:00:55;;;;;;;;;;;;;;;;;;2211579;67;1334;-74
2022/03/11 14:03:28;;;;;;;;;;;;;;;;;;2211569;59;1259;-74
2022/03/11 14:06:04;;;;;;;;;;;;;;;;;;2206834;59;1864;-74
2022/03/11 14:08:38;;;;;;;;;;;;;;;;;;2211709;67;1130;-74
2022/03/11 14:11:11;;;;;;;;;;;;;;;;;;2211598;59;1261;-73
2022/03/11 14:13:45;;;;;;;;;;;;;;;;;;2211499;59;1688;-74
2022/03/11 14:16:18;;;;;;;;;;;;;;;;;;2211618;59;1250;-73
2022/03/11 14:18:51;;;;;;;;;;;;;;;;;;2211898;67;1929;-73
2022/03/11 14:21:27;;;;;;;;;;;;;;;;;;2211322;59;1604;-74
2022/03/11 14:24:00;;;;;;;;;;;;;;;;;;2211379;59;1955;-73
2022/03/11 14:26:33;;;;;;;;;;;;;;;;;;2210506;59;1914;-73
2022/03/11 14:29:07;;;;;;;;;;;;;;;;;;2207388;67;1296;-74
2022/03/11 14:31:40;;;;;;;;;;;;;;;;;;2211119;67;1101;-74
2022/03/11 14:34:13;;;;;;;;;;;;;;;;;;2211069;59;1589;-73
2022/03/11 14:36:49;;;;;;;;;;;;;;;;;;2211240;59;1842;-74
2022/03/11 14:39:22;;;;;;;;;;;;;;;;;;2211344;67;1931;-74
2022/03/11 14:41:56;;;;;;;;;;;;;;;;;;2211734;67;1204;-73
2022/03/11 14:44:30;;;;;;;;;;;;;;;;;;2211360;67;1880;-73
2022/03/11 14:47:04;;;;;;;;;;;;;;;;;;2210716;59;1689;-73
2022/03/11 14:49:37;;;;;;;;;;;;;;;;;;2211595;59;1193;-74
2022/03/11 14:52:13;;;;;;;;;;;;;;;;;;2211333;59;1124;-73
2022/03/11 14:54:48;;;;;;;;;;;;;;;;;;2211532;59;2080;-74
2022/03/11 14:57:23;;;;;;;;;;;;;;;;;;2211263;67;1302;-74
2022/03/11 14:59:56;;;;;;;;;;;;;;;;;;2211500;67;2016;-73
2022/03/11 15:02:29;;;;;;;;;;;;;;;;;;2211340;67;1197;-73
2022/03/11 15:05:03;;;;;;;;;;;;;;;;;;2210956;67;1224;-74
2022/03/11 15:07:39;;;;;;;;;;;;;;;;;;2210211;59;2373;-73
2022/03/11 15:10:14;;;;;;;;;;;;;;;;;;2211104;67;1247;-73
2022/03/11 15:12:51;;;;;;;;;;;;;;;;;;2211660;67;1252;-73
2022/03/11 15:15:25;;;;;;;;;;;;;;;;;;2207019;59;2181;-73
2022/03/11 15:18:03;;;;;;;;;;;;;;;;;;2211365;59;1790;-73
2022/03/11 15:20:38;;;;;;;;;;;;;;;;;;2210942;67;1938;-74
2022/03/11 15:23:14;;;;;;;;;;;;;;;;;;2211463;67;1989;-73
2022/03/11 15:25:49;;;;;;;;;;;;;;;;;;2211298;59;1694;-73
2022/03/11 15:28:23;;;;;;;;;;;;;;;;;;2212046;67;1346;-73
2022/03/11 15:30:56;;;;;;;;;;;;;;;;;;2211610;67;1302;-73
2022/03/11 15:33:29;;;;;;;;;;;;;;;;;;2211746;67;1292;-74
2022/03/11 15:36:03;;;;;;;;;;;;;;;;;;2211353;59;1276;-74
2022/03/11 15:38:39;;;;;;;;;;;;;;;;;;2211692;59;1127;-74
2022/03/11 15:41:12;;;;;;;;;;;;;;;;;;2211835;67;1982;-73
2022/03/11 15:43:46;;;;;;;;;;;;;;;;;;2211872;67;1283;-73
2022/03/11 15:46:19;;;;;;;;;;;;;;;;;;2211458;59;1915;-73
2022/03/11 15:48:52;;;;;;;;;;;;;;;;;;2211201;59;1875;-74
2022/03/11 15:51:26;;;;;;;;;;;;;;;;;;2207355;67;1467;-73
2022/03/11 15:54:02;;;;;;;;;;;;;;;;;;2211051;59;2178;-73
2022/03/11 15:56:37;;;;;;;;;;;;;;;;;;2206755;59;1793;-73
2022/03/11 15:59:10;;;;;;;;;;;;;;;;;;2210933;59;1940;-73
2022/03/11 16:01:44;;;;;;;;;;;;;;;;;;2211329;67;1255;-73
2022/03/11 16:04:17;;;;;;;;;;;;;;;;;;2211003;59;1533;-74
2022/03/11 16:06:50;;;;;;;;;;;;;;;;;;2210996;59;1873;-73
2022/03/11 16:09:26;;;;;;;;;;;;;;;;;;2210456;59;1661;-73
2022/03/11 16:11:59;;;;;;;;;;;;;;;;;;2211878;60;1279;-73
2022/03/11 16:14:32;;;;;;;;;;;;;;;;;;2207808;59;1596;-73
2022/03/11 16:17:07;;;;;;;;;;;;;;;;;;2211760;67;1292;-74
2022/03/11 16:19:40;;;;;;;;;;;;;;;;;;2211909;59;1922;-73
2022/03/11 16:22:13;;;;;;;;;;;;;;;;;;2210908;67;1332;-73
2022/03/11 16:24:51;;;;;;;;;;;;;;;;;;2208134;59;1974;-73
2022/03/11 16:27:24;;;;;;;;;;;;;;;;;;2211190;59;1737;-73
2022/03/11 16:29:58;;;;;;;;;;;;;;;;;;2212215;67;1321;-74
2022/03/11 16:32:32;;;;;;;;;;;;;;;;;;2211983;59;1149;-73
2022/03/11 16:35:09;;;;;;;;;;;;;;;;;;2208771;67;1262;-73
2022/03/11 16:37:42;;;;;;;;;;;;;;;;;;2212266;59;1263;-73
2022/03/11 16:40:18;;;;;;;;;;;;;;;;;;2211755;59;1980;-73
2022/03/11 16:42:51;;;;;;;;;;;;;;;;;;2211356;59;1231;-73
2022/03/11 16:45:25;;;;;;;;;;;;;;;;;;2208314;59;1870;-73
2022/03/11 16:47:58;;;;;;;;;;;;;;;;;;2211667;59;1247;-73
2022/03/11 16:50:31;;;;;;;;;;;;;;;;;;2212406;67;1164;-73
2022/03/11 16:53:04;;;;;;;;;;;;;;;;;;2212007;67;1133;-74
2022/03/11 16:55:41;;;;;;;;;;;;;;;;;;2208170;59;2387;-73
2022/03/11 16:58:14;;;;;;;;;;;;;;;;;;2211324;59;1631;-73
2022/03/11 17:00:48;;;;;;;;;;;;;;;;;;2211641;59;1987;-73
2022/03/11 17:03:21;;;;;;;;;;;;;;;;;;2211463;59;1240;-73
2022/03/11 17:05:54;;;;;;;;;;;;;;;;;;2213424;53;3233;-71
2022/03/11 17:08:28;;;;;;;;;;;;;;;;;;2209500;59;1203;-70
2022/03/11 17:11:03;;;;;;;;;;;;;;;;;;2211958;59;1251;-71
2022/03/11 17:13:37;;;;;;;;;;;;;;;;;;2212328;67;1058;-71
2022/03/11 17:16:10;;;;;;;;;;;;;;;;;;2211763;59;1270;-71
2022/03/11 17:18:43;;;;;;;;;;;;;;;;;;2209867;67;1065;-70
2022/03/11 17:21:16;;;;;;;;;;;;;;;;;;2209351;59;1983;-70
2022/03/11 17:23:50;;;;;;;;;;;;;;;;;;2209540;59;2011;-70
2022/03/11 17:26:26;;;;;;;;;;;;;;;;;;2209307;59;1598;-70
2022/03/11 17:28:59;;;;;;;;;;;;;;;;;;2207848;67;1056;-70
2022/03/11 17:31:32;;;;;;;;;;;;;;;;;;2209188;67;1077;-70
2022/03/11 17:34:07;;;;;;;;;;;;;;;;;;2203534;67;1252;-70
2022/03/11 17:36:40;;;;;;;;;;;;;;;;;;2210072;59;1234;-70
2022/03/11 17:39:14;;;;;;;;;;;;;;;;;;2209364;59;1252;-70
2022/03/11 17:41:50;;;;;;;;;;;;;;;;;;2209243;59;1932;-70
2022/03/11 17:44:23;;;;;;;;;;;;;;;;;;2203948;67;1304;-70
2022/03/11 17:46:57;;;;;;;;;;;;;;;;;;2209847;59;1670;-70
2022/03/11 17:49:30;;;;;;;;;;;;;;;;;;2209513;67;1232;-69
2022/03/11 17:52:07;;;;;;;;;;;;;;;;;;2208447;67;1546;-70